Time;durP1;ratioP1;P1;durP2;ratioP2;P2;SDS_P1;SDS_P2;PMS_P1;PMS_P2;Temp;Humidity;BMP_temperature;BMP_pressure;BME280_temperature;BME280_humidity;BME280_pressure;Samples;Min_cycle;Max_cycle;Signal;HPM_P1;HPM_P2
2023/07/10 00:00:57;;;;;;;19.30;15.55;;;21.90;99.90;;;;;;5029524;28;20029;-78
2023/07/10 00:03:23;;;;;;;22.92;16.67;;;21.90;99.90;;;;;;5029735;28;20021;-78
2023/07/10 00:05:49;;;;;;;22.33;15.60;;;22.00;99.90;;;;;;5031338;28;20482;-77
2023/07/10 00:08:15;;;;;;;23.30;17.40;;;22.00;99.90;;;;;;5039322;28;20029;-77
2023/07/10 00:10:41;;;;;;;26.55;16.65;;;22.00;99.90;;;;;;5036763;28;20032;-77
2023/07/10 00:13:10;;;;;;;20.95;15.43;;;22.00;99.90;;;;;;5029357;28;20025;-77
2023/07/10 00:15:37;;;;;;;25.02;18.42;;;22.00;99.90;;;;;;5029387;28;20025;-79
2023/07/10 00:18:13;;;;;;;23.63;15.95;;;22.00;99.90;;;;;;5029878;28;20403;-78
2023/07/10 00:20:39;;;;;;;21.88;17.38;;;22.00;99.90;;;;;;5029696;28;20065;-77
2023/07/10 00:23:04;;;;;;;20.98;16.48;;;21.90;99.90;;;;;;5029677;28;20053;-77
2023/07/10 00:25:30;;;;;;;19.58;14.45;;;21.90;99.90;;;;;;5029185;28;20057;-76
2023/07/10 00:27:56;;;;;;;20.83;14.65;;;21.90;99.90;;;;;;5031234;28;20029;-79
2023/07/10 00:30:24;;;;;;;20.25;13.73;;;21.90;99.90;;;;;;5031950;28;20130;-78
2023/07/10 00:32:52;;;;;;;20.65;14.32;;;21.90;99.90;;;;;;5029998;28;20422;-77
2023/07/10 00:35:23;;;;;;;19.00;15.13;;;21.90;99.90;;;;;;5030302;28;20109;-78
2023/07/10 00:38:01;;;;;;;22.67;15.13;;;21.90;99.90;;;;;;5029361;28;20121;-78
2023/07/10 00:40:34;;;;;;;21.02;15.05;;;21.90;99.90;;;;;;5028582;28;20035;-79
2023/07/10 00:43:28;;;;;;;26.63;17.20;;;21.90;99.90;;;;;;5029536;28;20099;-79
2023/07/10 00:45:56;;;;;;;24.75;16.10;;;21.80;99.90;;;;;;5020987;28;20041;-78
2023/07/10 00:48:54;;;;;;;20.38;13.80;;;21.80;99.90;;;;;;5029202;28;20022;-78
2023/07/10 00:52:00;;;;;;;23.83;16.55;;;21.80;99.90;;;;;;5029160;28;20107;-76
2023/07/10 00:54:39;;;;;;;26.02;17.70;;;21.80;99.90;;;;;;5019880;28;20034;-77
2023/07/10 00:57:14;;;;;;;22.87;15.00;;;21.70;99.90;;;;;;5029182;28;20025;-77
2023/07/10 00:59:42;;;;;;;20.85;13.57;;;21.70;99.90;;;;;;5033065;28;20021;-77
2023/07/10 01:02:07;;;;;;;19.05;13.80;;;21.70;99.90;;;;;;5032601;28;20151;-77
2023/07/10 01:04:36;;;;;;;20.85;15.40;;;21.80;99.90;;;;;;5033193;28;20135;-78
2023/07/10 01:07:02;;;;;;;20.83;12.25;;;21.80;99.90;;;;;;5033184;28;20125;-78
2023/07/10 01:09:28;;;;;;;20.38;12.82;;;21.80;99.90;;;;;;5033365;28;20120;-77
2023/07/10 01:11:54;;;;;;;18.92;14.50;;;21.90;99.90;;;;;;5033771;28;20113;-79
2023/07/10 01:14:22;;;;;;;18.20;13.43;;;21.80;99.90;;;;;;5033357;28;20036;-77
2023/07/10 01:16:48;;;;;;;21.05;13.50;;;21.80;99.90;;;;;;5032977;28;20068;-77
2023/07/10 01:19:21;;;;;;;21.40;14.57;;;21.80;99.90;;;;;;5032116;28;20417;-77
2023/07/10 01:21:50;;;;;;;21.30;14.55;;;21.70;99.90;;;;;;5032150;28;20093;-78
2023/07/10 01:24:16;;;;;;;19.63;14.38;;;21.70;99.90;;;;;;5033074;28;20021;-77
2023/07/10 01:26:42;;;;;;;22.52;11.68;;;21.70;99.90;;;;;;5032606;28;20037;-78
2023/07/10 01:29:22;;;;;;;15.05;11.57;;;21.70;99.90;;;;;;5032357;28;20037;-76
2023/07/10 01:31:52;;;;;;;19.73;13.27;;;21.60;99.90;;;;;;5032683;28;20091;-77
2023/07/10 01:34:21;;;;;;;20.70;14.90;;;21.50;99.90;;;;;;5031498;28;20467;-77
2023/07/10 01:36:48;;;;;;;23.48;14.48;;;21.40;99.90;;;;;;5032410;28;20022;-77
2023/07/10 01:39:13;;;;;;;17.25;10.63;;;21.40;99.90;;;;;;5032430;28;20053;-76
2023/07/10 01:41:42;;;;;;;15.52;11.43;;;21.50;99.90;;;;;;5032846;28;20480;-77
2023/07/10 01:44:21;;;;;;;15.82;10.57;;;21.50;99.90;;;;;;5032338;28;20053;-78
2023/07/10 01:46:49;;;;;;;14.98;10.95;;;21.40;99.90;;;;;;5032349;28;20069;-77
2023/07/10 01:49:16;;;;;;;19.60;12.02;;;21.40;99.90;;;;;;5031769;28;20030;-76
2023/07/10 01:51:41;;;;;;;20.48;12.75;;;21.40;99.90;;;;;;5032318;28;20752;-77
2023/07/10 01:54:14;;;;;;;15.35;11.52;;;21.50;99.90;;;;;;5032136;28;20026;-78
2023/07/10 01:56:41;;;;;;;14.45;9.85;;;21.50;99.90;;;;;;5032243;28;20087;-77
2023/07/10 01:59:07;;;;;;;17.08;9.85;;;21.50;99.90;;;;;;5031927;28;20035;-78
2023/07/10 02:01:33;;;;;;;17.33;9.73;;;21.50;99.90;;;;;;5031569;28;20029;-79
2023/07/10 02:03:58;;;;;;;13.35;8.50;;;21.50;99.90;;;;;;5031957;28;20487;-78
2023/07/10 02:06:24;;;;;;;20.65;10.68;;;21.50;99.90;;;;;;5031567;28;20048;-77
2023/07/10 02:08:49;;;;;;;13.70;8.88;;;21.50;99.90;;;;;;5031593;28;20026;-77
2023/07/10 02:11:15;;;;;;;15.00;9.20;;;21.50;99.90;;;;;;5030998;28;20036;-77
2023/07/10 02:13:41;;;;;;;14.38;8.32;;;21.50;99.90;;;;;;5031741;28;20026;-76
2023/07/10 02:16:10;;;;;;;14.30;8.80;;;21.50;99.90;;;;;;5031288;28;20064;-77
2023/07/10 02:18:35;;;;;;;15.02;9.45;;;21.50;99.90;;;;;;5031644;28;20025;-77
2023/07/10 02:21:01;;;;;;;15.60;8.65;;;21.50;99.90;;;;;;5031528;28;20024;-78
2023/07/10 02:23:28;;;;;;;15.57;8.00;;;21.50;99.90;;;;;;5031532;28;20036;-76
2023/07/10 02:25:54;;;;;;;15.30;7.20;;;21.50;99.90;;;;;;5031382;28;20495;-77
2023/07/10 02:28:20;;;;;;;13.68;8.77;;;21.50;99.90;;;;;;5031129;28;20032;-78
2023/07/10 02:30:45;;;;;;;17.75;7.57;;;21.50;99.90;;;;;;5031422;28;20025;-77
2023/07/10 02:33:11;;;;;;;14.98;7.65;;;21.50;99.90;;;;;;5031302;28;20025;-76
2023/07/10 02:35:36;;;;;;;16.02;7.60;;;21.40;99.90;;;;;;5031529;28;20037;-77
2023/07/10 02:38:02;;;;;;;15.00;7.03;;;21.40;99.90;;;;;;5031045;28;20037;-77
2023/07/10 02:40:28;;;;;;;13.70;6.80;;;21.40;99.90;;;;;;5029609;28;20033;-76
2023/07/10 02:42:53;;;;;;;12.32;6.30;;;21.40;99.90;;;;;;5030928;28;20613;-77
2023/07/10 02:45:19;;;;;;;11.63;6.22;;;21.40;99.90;;;;;;5033544;28;20029;-76
2023/07/10 02:47:45;;;;;;;12.43;6.28;;;21.30;99.90;;;;;;5032205;28;20357;-77
2023/07/10 02:50:11;;;;;;;11.90;5.75;;;21.30;99.90;;;;;;5030196;28;20026;-78
2023/07/10 02:52:37;;;;;;;11.30;5.45;;;21.30;99.90;;;;;;5031344;28;20029;-77
2023/07/10 02:55:03;;;;;;;13.25;6.10;;;21.30;99.90;;;;;;5030974;28;20387;-77
2023/07/10 02:57:28;;;;;;;9.18;5.20;;;21.30;99.90;;;;;;5030371;28;20203;-76
2023/07/10 02:59:54;;;;;;;9.60;5.15;;;21.30;99.90;;;;;;5030775;28;20478;-77
2023/07/10 03:02:19;;;;;;;11.70;4.90;;;21.30;99.90;;;;;;5030215;28;20029;-76
2023/07/10 03:04:45;;;;;;;9.75;5.35;;;21.20;99.90;;;;;;5030879;28;20182;-77
2023/07/10 03:07:11;;;;;;;9.32;5.30;;;21.20;99.90;;;;;;5030530;28;20034;-77
2023/07/10 03:09:36;;;;;;;10.10;4.43;;;21.10;99.90;;;;;;5030500;28;20456;-76
2023/07/10 03:12:02;;;;;;;10.68;4.90;;;21.20;99.90;;;;;;5031024;28;20566;-77
2023/07/10 03:14:28;;;;;;;7.80;4.53;;;21.20;99.90;;;;;;5030535;28;20025;-77
2023/07/10 03:16:53;;;;;;;15.65;4.65;;;21.20;99.90;;;;;;5030499;28;20026;-76
2023/07/10 03:19:19;;;;;;;9.85;5.03;;;21.20;99.90;;;;;;5030700;28;20025;-77
2023/07/10 03:21:45;;;;;;;8.43;4.80;;;21.20;99.90;;;;;;5030294;28;20025;-77
2023/07/10 03:24:10;;;;;;;9.77;4.15;;;21.20;99.70;;;;;;5030641;28;20060;-76
2023/07/10 03:26:36;;;;;;;13.95;5.00;;;21.20;99.60;;;;;;5030528;28;20419;-78
2023/07/10 03:29:09;;;;;;;10.10;4.70;;;21.10;99.50;;;;;;5030813;28;20479;-77
2023/07/10 03:31:34;;;;;;;9.27;4.15;;;21.10;99.80;;;;;;5030419;28;20017;-79
2023/07/10 03:34:01;;;;;;;8.77;4.05;;;21.10;99.90;;;;;;5030930;28;20025;-77
2023/07/10 03:36:27;;;;;;;7.07;3.63;;;21.10;99.90;;;;;;5030466;28;20040;-78
2023/07/10 03:38:53;;;;;;;10.32;4.38;;;21.10;99.90;;;;;;5030519;28;20030;-76
2023/07/10 03:41:20;;;;;;;10.20;4.00;;;21.10;99.90;;;;;;5029801;28;20067;-77
2023/07/10 03:43:48;;;;;;;9.38;3.95;;;21.10;99.90;;;;;;5030298;28;20022;-77
2023/07/10 03:46:14;;;;;;;8.70;4.10;;;21.10;99.80;;;;;;5029931;28;20033;-77
2023/07/10 03:48:40;;;;;;;8.00;3.90;;;21.10;99.90;;;;;;5029981;28;20042;-77
2023/07/10 03:51:06;;;;;;;10.88;4.50;;;21.10;99.80;;;;;;5030253;28;20022;-75
2023/07/10 03:53:31;;;;;;;8.25;3.63;;;21.10;99.70;;;;;;5030004;28;20060;-77
2023/07/10 03:55:57;;;;;;;8.68;4.05;;;21.10;99.90;;;;;;5029741;28;20040;-77
2023/07/10 03:58:29;;;;;;;8.40;3.78;;;21.10;99.80;;;;;;5030267;28;20026;-76
2023/07/10 04:00:56;;;;;;;7.30;4.40;;;21.10;99.90;;;;;;5030121;28;20032;-75
2023/07/10 04:03:23;;;;;;;7.38;3.72;;;21.10;99.90;;;;;;5029685;28;20025;-77
2023/07/10 04:05:52;;;;;;;12.25;4.50;;;21.10;99.80;;;;;;5028867;28;20499;-77
2023/07/10 04:08:21;;;;;;;6.75;3.40;;;21.10;99.40;;;;;;5029662;28;20079;-78
2023/07/10 04:10:51;;;;;;;10.45;3.67;;;21.10;99.20;;;;;;5029974;28;20027;-77
2023/07/10 04:13:17;;;;;;;;;;;21.00;99.10;;;;;;5030359;28;20040;-77
2023/07/10 04:16:12;;;;;;;11.73;3.92;;;21.00;98.70;;;;;;5029691;28;19905;-77
2023/07/10 04:18:39;;;;;;;10.50;3.90;;;20.90;98.60;;;;;;5030241;28;20296;-77
2023/07/10 04:21:09;;;;;;;8.27;4.07;;;20.90;98.40;;;;;;5029975;28;20025;-76
2023/07/10 04:23:35;;;;;;;;;;;20.90;98.40;;;;;;5030791;28;20025;-77
2023/07/10 04:26:00;;;;;;;8.80;3.97;;;20.90;98.40;;;;;;5029249;28;19917;-77
2023/07/10 04:28:26;;;;;;;6.97;3.65;;;20.90;98.30;;;;;;5029166;28;20033;-78
2023/07/10 04:30:53;;;;;;;8.98;4.43;;;20.80;98.30;;;;;;5029165;28;20029;-76
2023/07/10 04:33:19;;;;;;;9.30;4.80;;;20.80;98.40;;;;;;5028374;28;20418;-76
2023/07/10 04:35:54;;;;;;;9.60;4.30;;;20.80;98.20;;;;;;5029359;28;20040;-76
2023/07/10 04:38:25;;;;;;;10.23;4.97;;;20.80;98.30;;;;;;5029035;28;20034;-77
2023/07/10 04:40:56;;;;;;;7.22;4.25;;;20.80;98.00;;;;;;5027874;28;20045;-78
2023/07/10 04:43:22;;;;;;;9.15;4.50;;;20.80;98.00;;;;;;5027943;28;20029;-75
2023/07/10 04:45:49;;;;;;;9.73;3.50;;;20.80;98.10;;;;;;5027937;28;20526;-77
2023/07/10 04:48:17;;;;;;;12.85;4.93;;;20.80;98.10;;;;;;5028871;28;20025;-76
2023/07/10 04:50:50;;;;;;;8.50;4.22;;;20.80;98.10;;;;;;5028650;28;20096;-77
2023/07/10 04:53:18;;;;;;;9.23;4.53;;;20.80;98.10;;;;;;5029109;28;20141;-78
2023/07/10 04:55:44;;;;;;;8.82;4.03;;;20.80;98.00;;;;;;5032938;28;20120;-77
2023/07/10 04:58:10;;;;;;;7.55;4.63;;;20.80;98.30;;;;;;5045632;28;20021;-76
2023/07/10 05:00:36;;;;;;;12.07;4.45;;;20.90;98.10;;;;;;5028844;28;20125;-75
2023/07/10 05:03:03;;;;;;;10.10;4.57;;;20.90;98.00;;;;;;5028969;28;20030;-77
2023/07/10 05:05:29;;;;;;;10.80;5.60;;;20.90;98.10;;;;;;5028787;28;20029;-78
2023/07/10 05:07:54;;;;;;;10.07;5.38;;;20.90;97.80;;;;;;5028691;28;20071;-75
2023/07/10 05:10:20;;;;;;;10.68;5.35;;;20.90;97.80;;;;;;5028545;28;20079;-76
2023/07/10 05:12:46;;;;;;;9.00;4.13;;;20.80;97.90;;;;;;5028783;28;20040;-77
2023/07/10 05:15:12;;;;;;;9.65;4.45;;;20.90;97.80;;;;;;5028785;28;20018;-76
2023/07/10 05:17:37;;;;;;;9.70;3.95;;;20.80;97.80;;;;;;5029462;28;20381;-76
2023/07/10 05:20:03;;;;;;;8.90;4.45;;;20.80;97.90;;;;;;5028996;28;20037;-77
2023/07/10 05:22:29;;;;;;;7.57;4.10;;;20.80;97.90;;;;;;5027086;28;20021;-77
2023/07/10 05:24:54;;;;;;;8.75;4.25;;;20.80;97.80;;;;;;5026366;28;20042;-77
2023/07/10 05:27:20;;;;;;;7.05;3.78;;;20.80;97.80;;;;;;5027441;28;20029;-78
2023/07/10 05:29:46;;;;;;;10.45;4.47;;;20.80;97.60;;;;;;5027132;28;20112;-77
2023/07/10 05:32:11;;;;;;;11.20;4.40;;;20.80;97.50;;;;;;5027272;28;20032;-76
2023/07/10 05:34:37;;;;;;;10.73;4.22;;;20.80;97.30;;;;;;5025775;28;20032;-75
2023/07/10 05:37:03;;;;;;;10.55;4.65;;;20.70;97.50;;;;;;5028186;28;20036;-75
2023/07/10 05:39:29;;;;;;;11.98;3.20;;;20.80;97.60;;;;;;5028825;28;20571;-77
2023/07/10 05:41:56;;;;;;;9.98;3.80;;;20.90;97.40;;;;;;5028880;28;20025;-77
2023/07/10 05:44:21;;;;;;;7.25;2.90;;;21.00;97.30;;;;;;5029275;28;20034;-75
2023/07/10 05:46:47;;;;;;;5.45;2.03;;;21.00;97.10;;;;;;5032398;28;20029;-74
2023/07/10 05:49:13;;;;;;;7.50;2.53;;;21.20;97.20;;;;;;5032212;28;20033;-75
2023/07/10 05:51:39;;;;;;;5.30;1.80;;;21.80;96.20;;;;;;5031808;28;20033;-76
2023/07/10 05:54:05;;;;;;;6.90;2.10;;;22.30;95.80;;;;;;5032486;28;20025;-77
2023/07/10 05:56:30;;;;;;;5.68;1.83;;;22.80;94.70;;;;;;5030923;28;20122;-77
2023/07/10 05:58:56;;;;;;;6.55;2.45;;;23.00;94.20;;;;;;5032101;28;20499;-77
2023/07/10 06:01:22;;;;;;;5.18;1.45;;;23.20;93.20;;;;;;5031894;28;20029;-77
2023/07/10 06:03:48;;;;;;;4.53;1.77;;;23.60;93.00;;;;;;5031853;28;20108;-76
2023/07/10 06:06:13;;;;;;;7.20;1.58;;;23.90;92.40;;;;;;5031881;28;20183;-77
2023/07/10 06:08:39;;;;;;;5.90;1.60;;;24.10;92.00;;;;;;5031753;28;20033;-77
2023/07/10 06:11:06;;;;;;;4.95;1.75;;;24.20;91.80;;;;;;5030764;28;20119;-77
2023/07/10 06:13:32;;;;;;;4.05;1.65;;;24.30;91.60;;;;;;5032216;28;20026;-76
2023/07/10 06:15:59;;;;;;;6.70;1.90;;;24.50;90.70;;;;;;5031756;28;20029;-76
2023/07/10 06:18:26;;;;;;;6.97;2.00;;;24.70;90.20;;;;;;5031239;28;20025;-75
2023/07/10 06:20:56;;;;;;;4.60;1.65;;;24.70;89.90;;;;;;5032041;28;20052;-77
2023/07/10 06:23:24;;;;;;;5.15;2.00;;;24.50;90.00;;;;;;5031397;28;20032;-78
2023/07/10 06:25:51;;;;;;;6.07;1.83;;;24.50;89.80;;;;;;5032190;28;20072;-77
2023/07/10 06:28:16;;;;;;;4.70;2.00;;;24.50;90.00;;;;;;5031473;28;20507;-76
2023/07/10 06:30:46;;;;;;;4.57;1.75;;;24.50;90.10;;;;;;5031393;28;20025;-77
2023/07/10 06:33:11;;;;;;;4.13;1.50;;;24.50;90.20;;;;;;5031467;28;20029;-78
2023/07/10 06:35:37;;;;;;;6.65;1.75;;;24.70;89.90;;;;;;5031649;28;20275;-77
2023/07/10 06:38:02;;;;;;;5.80;1.52;;;25.00;89.00;;;;;;5030385;28;20080;-77
2023/07/10 06:40:28;;;;;;;5.78;1.92;;;25.10;88.40;;;;;;5029507;28;20048;-76
2023/07/10 06:42:54;;;;;;;7.10;2.22;;;25.00;88.00;;;;;;5030121;28;20033;-77
2023/07/10 06:45:19;;;;;;;6.40;1.58;;;24.80;87.10;;;;;;5031225;28;20075;-75
2023/07/10 06:47:46;;;;;;;5.05;1.65;;;24.70;87.90;;;;;;5031427;28;20025;-76
2023/07/10 06:50:14;;;;;;;7.55;2.08;;;24.70;86.60;;;;;;5031332;28;20033;-75
2023/07/10 06:52:42;;;;;;;5.93;1.58;;;24.70;87.90;;;;;;5031296;28;20029;-75
2023/07/10 06:55:11;;;;;;;6.72;1.73;;;24.50;86.90;;;;;;5030348;28;20491;-78
2023/07/10 06:57:37;;;;;;;8.15;1.70;;;24.50;86.40;;;;;;5031253;28;20029;-76
2023/07/10 07:00:05;;;;;;;5.05;1.75;;;24.50;86.50;;;;;;5031001;28;20029;-74
2023/07/10 07:02:31;;;;;;;9.77;2.08;;;24.40;86.80;;;;;;5031103;28;20024;-75
2023/07/10 07:04:57;;;;;;;5.10;1.60;;;24.40;84.50;;;;;;5031069;28;20415;-76
2023/07/10 07:07:23;;;;;;;4.30;1.45;;;24.20;86.40;;;;;;5031264;28;20037;-78
2023/07/10 07:09:48;;;;;;;5.82;1.55;;;24.30;87.50;;;;;;5030889;28;20021;-75
2023/07/10 07:12:14;;;;;;;3.17;1.30;;;24.30;86.50;;;;;;5029707;28;20022;-74
2023/07/10 07:14:39;;;;;;;6.13;1.63;;;24.30;87.30;;;;;;5013141;28;20014;-75
2023/07/10 07:17:05;;;;;;;5.10;1.83;;;24.40;86.30;;;;;;5029389;28;20025;-74
2023/07/10 07:19:32;;;;;;;3.78;1.35;;;24.50;86.90;;;;;;5030341;28;20483;-75
2023/07/10 07:22:00;;;;;;;6.90;2.35;;;24.50;86.50;;;;;;5030550;28;20502;-75
2023/07/10 07:24:26;;;;;;;7.22;1.45;;;24.50;86.10;;;;;;5028640;28;20479;-76
2023/07/10 07:26:52;;;;;;;5.97;1.52;;;24.50;85.90;;;;;;5030400;28;20076;-75
2023/07/10 07:29:17;;;;;;;4.65;1.02;;;24.50;84.60;;;;;;5030262;28;20472;-74
2023/07/10 07:31:43;;;;;;;5.00;1.33;;;24.40;85.00;;;;;;5030461;28;20032;-75
2023/07/10 07:34:09;;;;;;;3.97;1.17;;;24.30;84.50;;;;;;5030901;28;20055;-74
2023/07/10 07:36:36;;;;;;;6.35;1.88;;;24.40;84.40;;;;;;5030126;28;20080;-74
2023/07/10 07:39:03;;;;;;;3.33;1.13;;;24.40;84.30;;;;;;5030100;28;20033;-75
2023/07/10 07:41:33;;;;;;;5.05;1.30;;;24.50;84.80;;;;;;5030415;28;20041;-74
2023/07/10 07:44:00;;;;;;;7.70;1.73;;;24.60;84.30;;;;;;5028728;28;20547;-73
2023/07/10 07:46:27;;;;;;;5.93;1.50;;;24.70;84.10;;;;;;5029800;28;20048;-74
2023/07/10 07:48:52;;;;;;;4.30;1.35;;;24.70;83.60;;;;;;5029715;28;20060;-75
2023/07/10 07:51:18;;;;;;;8.15;1.63;;;24.70;84.20;;;;;;5030109;28;20538;-73
2023/07/10 07:53:44;;;;;;;4.40;1.15;;;24.70;83.50;;;;;;5030527;28;20021;-72
2023/07/10 07:56:10;;;;;;;8.85;1.80;;;24.70;83.90;;;;;;5029917;28;20029;-72
2023/07/10 07:58:36;;;;;;;8.40;1.58;;;24.80;83.70;;;;;;5029883;28;20022;-73
2023/07/10 08:01:02;;;;;;;5.30;1.30;;;24.70;83.20;;;;;;5029842;28;20034;-72
2023/07/10 08:03:29;;;;;;;7.05;1.35;;;24.70;83.50;;;;;;5029913;28;20044;-73
2023/07/10 08:05:56;;;;;;;6.07;1.40;;;24.70;83.50;;;;;;5029968;28;20190;-72
2023/07/10 08:08:22;;;;;;;3.80;1.15;;;24.60;83.70;;;;;;5028072;28;20028;-73
2023/07/10 08:10:49;;;;;;;5.82;1.10;;;24.70;83.70;;;;;;5029403;28;20057;-75
2023/07/10 08:13:17;;;;;;;7.88;2.35;;;24.60;83.80;;;;;;5029604;28;20025;-73
2023/07/10 08:15:43;;;;;;;6.43;1.60;;;24.60;83.60;;;;;;5029748;28;20030;-74
2023/07/10 08:18:09;;;;;;;5.88;1.20;;;24.70;83.80;;;;;;5029621;28;20018;-73
2023/07/10 08:20:35;;;;;;;4.75;1.33;;;24.70;84.20;;;;;;5029637;28;20479;-74
2023/07/10 08:23:03;;;;;;;8.27;1.58;;;24.90;84.00;;;;;;5029957;28;20021;-77
2023/07/10 08:25:29;;;;;;;5.75;1.48;;;25.00;83.00;;;;;;5029225;28;20050;-76
2023/07/10 08:27:59;;;;;;;6.72;1.67;;;25.20;83.20;;;;;;5029700;28;20521;-78
2023/07/10 08:30:25;;;;;;;4.45;1.20;;;25.30;82.00;;;;;;5030246;28;20382;-77
2023/07/10 08:32:50;;;;;;;6.20;1.88;;;25.50;82.40;;;;;;5030787;28;20113;-75
2023/07/10 08:35:16;;;;;;;6.20;1.23;;;25.70;82.20;;;;;;5029734;28;20509;-76
2023/07/10 08:37:42;;;;;;;6.25;1.55;;;25.80;82.20;;;;;;5030168;28;20060;-75
2023/07/10 08:40:33;;;;;;;5.18;1.42;;;25.90;81.20;;;;;;5031038;28;20040;-75
2023/07/10 08:43:16;;;;;;;7.70;1.73;;;25.90;79.80;;;;;;5030305;28;20100;-76
2023/07/10 08:45:44;;;;;;;7.90;1.60;;;25.80;79.10;;;;;;5030356;28;20087;-76
2023/07/10 08:48:21;;;;;;;4.97;1.33;;;25.80;79.80;;;;;;5029271;28;20030;-77
2023/07/10 08:50:47;;;;;;;7.97;1.83;;;26.00;80.10;;;;;;5029029;28;20033;-76
2023/07/10 08:53:19;;;;;;;7.72;1.88;;;26.20;80.40;;;;;;5029680;28;20021;-76
2023/07/10 08:56:00;;;;;;;7.43;1.75;;;26.40;78.50;;;;;;5029412;28;20022;-77
2023/07/10 08:58:29;;;;;;;6.10;1.45;;;26.30;78.40;;;;;;5029420;28;20104;-76
2023/07/10 09:01:01;;;;;;;6.93;1.40;;;26.40;78.90;;;;;;5029948;28;20026;-76
2023/07/10 09:03:35;;;;;;;4.68;1.02;;;26.40;78.30;;;;;;5029825;28;20033;-76
2023/07/10 09:06:03;;;;;;;8.23;2.05;;;26.50;78.40;;;;;;5029793;28;20407;-76
2023/07/10 09:08:32;;;;;;;6.18;1.20;;;26.50;79.10;;;;;;5030168;28;20048;-75
2023/07/10 09:11:02;;;;;;;7.00;1.60;;;26.50;77.50;;;;;;5030237;28;20045;-76
2023/07/10 09:13:33;;;;;;;5.75;1.73;;;26.50;78.10;;;;;;5029306;28;20039;-75
2023/07/10 09:15:59;;;;;;;9.65;1.73;;;26.60;78.30;;;;;;5029591;28;20483;-78
2023/07/10 09:19:03;;;;;;;5.13;1.58;;;26.60;78.00;;;;;;5030136;28;20037;-75
2023/07/10 09:21:32;;;;;;;5.05;1.23;;;26.60;77.70;;;;;;5032974;28;20105;-74
2023/07/10 09:23:58;;;;;;;6.00;1.27;;;26.70;77.90;;;;;;5032200;28;20388;-74
2023/07/10 09:26:29;;;;;;;4.93;1.40;;;26.80;78.20;;;;;;5032474;28;20045;-77
2023/07/10 09:29:10;;;;;;;6.35;1.65;;;26.90;77.70;;;;;;5031129;28;20036;-73
2023/07/10 09:32:06;;;;;;;11.68;2.88;;;26.90;77.70;;;;;;5032708;28;20547;-72
2023/07/10 09:34:35;;;;;;;8.27;1.95;;;26.70;74.40;;;;;;5032374;28;20052;-74
2023/07/10 09:37:04;;;;;;;8.27;1.98;;;26.70;75.90;;;;;;5032864;28;20426;-76
2023/07/10 09:39:32;;;;;;;4.93;1.52;;;26.70;74.60;;;;;;5034715;28;20025;-73
2023/07/10 09:41:59;;;;;;;7.88;2.22;;;26.90;77.70;;;;;;5034025;28;20025;-73
2023/07/10 09:44:36;;;;;;;4.38;1.52;;;27.20;76.80;;;;;;5032250;28;20025;-74
2023/07/10 09:47:11;;;;;;;9.18;1.80;;;27.30;78.00;;;;;;5033287;28;20033;-72
2023/07/10 09:49:42;;;;;;;5.63;1.13;;;27.50;75.00;;;;;;5031827;28;20029;-75
2023/07/10 09:52:21;;;;;;;10.10;2.63;;;27.50;76.90;;;;;;5032505;28;20109;-74
2023/07/10 09:54:48;;;;;;;5.85;1.45;;;27.60;72.60;;;;;;5033773;28;20049;-74
2023/07/10 09:57:17;;;;;;;5.88;1.60;;;27.50;74.60;;;;;;5033647;28;20032;-77
2023/07/10 09:59:51;;;;;;;10.90;2.13;;;27.60;73.30;;;;;;5032634;28;20021;-76
2023/07/10 10:02:27;;;;;;;6.60;1.88;;;27.70;74.30;;;;;;5033257;28;20164;-73
2023/07/10 10:05:07;;;;;;;7.72;2.03;;;27.80;73.80;;;;;;5032161;28;20022;-75
2023/07/10 10:07:39;;;;;;;6.95;1.55;;;27.90;74.10;;;;;;5032391;28;20025;-76
2023/07/10 10:10:20;;;;;;;5.28;1.35;;;27.90;71.60;;;;;;5032558;28;20494;-74
2023/07/10 10:12:49;;;;;;;6.50;1.52;;;27.90;73.80;;;;;;5031660;28;20024;-73
2023/07/10 10:15:30;;;;;;;5.70;1.42;;;27.80;71.60;;;;;;5031473;28;20033;-76
2023/07/10 10:18:01;;;;;;;5.75;1.20;;;27.70;71.60;;;;;;5031977;28;20053;-76
2023/07/10 10:20:30;;;;;;;6.57;1.73;;;27.80;71.60;;;;;;5031699;28;20079;-73
2023/07/10 10:22:57;;;;;;;8.02;2.22;;;27.80;71.50;;;;;;5031749;28;20022;-73
2023/07/10 10:25:37;;;;;;;7.22;1.73;;;27.80;71.90;;;;;;5031433;28;20089;-75
2023/07/10 10:28:40;;;;;;;5.70;1.30;;;27.80;70.20;;;;;;5031900;28;20068;-75
2023/07/10 10:31:09;;;;;;;6.43;1.60;;;27.80;74.00;;;;;;5031281;28;20103;-76
2023/07/10 10:33:46;;;;;;;7.63;1.30;;;27.80;76.00;;;;;;5031134;28;20025;-74
2023/07/10 10:36:48;;;;;;;5.60;1.48;;;27.70;75.60;;;;;;5031632;28;20483;-76
2023/07/10 10:39:36;;;;;;;5.55;1.67;;;27.50;74.30;;;;;;5031321;28;20024;-77
2023/07/10 10:42:24;;;;;;;6.82;1.70;;;27.50;73.30;;;;;;5031439;28;20034;-76
2023/07/10 10:45:19;;;;;;;5.78;1.58;;;27.30;71.30;;;;;;5023648;28;20042;-75
2023/07/10 10:47:53;;;;;;;7.93;1.33;;;27.10;76.80;;;;;;5031459;28;20497;-75
2023/07/10 10:50:28;;;;;;;7.38;1.88;;;26.90;74.40;;;;;;5031633;28;20083;-77
2023/07/10 10:53:19;;;;;;;6.15;1.45;;;26.80;74.10;;;;;;5030574;28;20026;-77
2023/07/10 10:55:47;;;;;;;6.40;1.77;;;26.70;76.70;;;;;;5030456;28;20022;-77
2023/07/10 10:58:41;;;;;;;8.43;1.60;;;26.80;75.40;;;;;;5030760;28;20049;-74
2023/07/10 11:01:13;;;;;;;7.18;1.85;;;26.90;76.10;;;;;;5009395;28;20395;-77
2023/07/10 11:03:54;;;;;;;8.23;1.85;;;27.00;72.30;;;;;;5031875;28;20029;-76
2023/07/10 11:06:44;;;;;;;7.88;1.60;;;27.10;75.30;;;;;;5032621;28;20021;-76
2023/07/10 11:09:17;;;;;;;7.95;1.75;;;27.40;77.40;;;;;;5032038;28;20037;-76
2023/07/10 11:11:43;;;;;;;5.65;1.77;;;27.90;73.10;;;;;;5031805;28;20471;-76
2023/07/10 11:14:11;;;;;;;6.47;1.38;;;28.20;70.20;;;;;;5031764;28;20028;-76
2023/07/10 11:16:38;;;;;;;10.63;2.17;;;28.50;75.20;;;;;;5031075;28;20021;-76
2023/07/10 11:19:04;;;;;;;4.80;1.10;;;28.60;70.20;;;;;;5032604;28;20401;-75
2023/07/10 11:21:31;;;;;;;8.30;1.83;;;28.80;74.60;;;;;;5031380;28;20457;-73
2023/07/10 11:23:57;;;;;;;9.57;2.20;;;28.80;70.00;;;;;;5030593;28;20029;-75
2023/07/10 11:26:26;;;;;;;6.63;1.52;;;28.80;68.30;;;;;;5027465;28;20383;-73
2023/07/10 11:29:13;;;;;;;8.40;2.25;;;28.70;65.90;;;;;;5027753;28;20545;-74
2023/07/10 11:31:42;;;;;;;7.28;1.60;;;28.70;67.20;;;;;;5006983;28;20088;-74
2023/07/10 11:34:28;;;;;;;6.85;1.67;;;28.70;69.50;;;;;;5028873;28;20404;-76
2023/07/10 11:36:55;;;;;;;8.38;1.73;;;28.70;69.70;;;;;;5029208;28;20033;-75
2023/07/10 11:39:30;;;;;;;7.28;1.85;;;28.90;68.40;;;;;;5029867;28;20055;-75
2023/07/10 11:41:56;;;;;;;8.00;1.80;;;28.90;68.20;;;;;;5028500;28;20037;-75
2023/07/10 11:44:28;;;;;;;7.95;1.75;;;29.00;70.40;;;;;;5027742;28;20025;-74
2023/07/10 11:47:06;;;;;;;7.43;1.88;;;29.20;71.00;;;;;;5029414;28;20120;-76
2023/07/10 11:49:41;;;;;;;10.38;2.00;;;;;;;;;;5029140;28;20041;-74
2023/07/10 11:52:16;;;;;;;6.03;1.50;;;;;;;;;;5028306;28;20122;-77
2023/07/10 11:54:48;;;;;;;4.80;1.77;;;;;;;;;;5029364;28;20022;-77
2023/07/10 11:57:19;;;;;;;8.98;2.13;;;;;;;;;;5030659;28;20068;-73
2023/07/10 11:59:47;;;;;;;8.70;2.17;;;;;;;;;;5031009;28;20029;-76
2023/07/10 12:02:32;;;;;;;7.35;1.75;;;;;;;;;;5030381;28;20029;-74
2023/07/10 12:05:02;;;;;;;10.35;2.25;;;;;;;;;;5029665;28;20112;-76
2023/07/10 12:07:28;;;;;;;7.22;2.10;;;;;;;;;;5030331;28;20084;-74
2023/07/10 12:09:58;;;;;;;6.82;1.48;;;;;;;;;;5030740;28;20471;-76
2023/07/10 12:12:28;;;;;;;7.18;1.48;;;;;;;;;;5030211;28;20029;-73
2023/07/10 12:14:54;;;;;;;5.80;1.85;;;;;;;;;;5030363;28;20475;-76
2023/07/10 12:17:21;;;;;;;6.15;1.48;;;;;;;;;;5029586;28;20021;-73
2023/07/10 12:19:53;;;;;;;10.43;1.92;;;;;;;;;;5029699;28;20025;-77
2023/07/10 12:22:21;;;;;;;7.53;1.63;;;;;;;;;;5030431;28;20021;-71
2023/07/10 12:24:54;;;;;;;9.98;1.77;;;;;;;;;;5030097;28;20056;-73
2023/07/10 12:27:20;;;;;;;4.18;1.25;;;;;;;;;;5030315;28;20048;-75
2023/07/10 12:29:54;;;;;;;9.23;1.88;;;;;;;;;;5030224;28;20053;-74
2023/07/10 12:32:22;;;;;;;6.88;1.48;;;;;;;;;;5030227;28;20060;-73
2023/07/10 12:34:48;;;;;;;8.73;1.70;;;;;;;;;;5030454;28;20022;-74
2023/07/10 12:37:16;;;;;;;7.97;2.20;;;;;;;;;;5030541;28;20483;-76
2023/07/10 12:39:49;;;;;;;9.68;1.85;;;;;;;;;;5030752;28;20079;-75
2023/07/10 12:42:25;;;;;;;6.03;1.75;;;;;;;;;;5029311;28;20026;-73
2023/07/10 12:44:51;;;;;;;7.10;1.67;;;;;;;;;;5030376;28;20029;-73
2023/07/10 12:47:17;;;;;;;7.82;2.05;;;;;;;;;;5031051;28;20029;-73
2023/07/10 12:49:52;;;;;;;5.70;1.73;;;;;;;;;;5029940;28;20029;-73
2023/07/10 12:52:18;;;;;;;4.78;1.20;;;;;;;;;;5030203;28;20128;-75
2023/07/10 12:54:46;;;;;;;5.93;1.65;;;;;;;;;;5033585;28;20036;-76
2023/07/10 12:57:16;;;;;;;8.70;1.85;;;;;;;;;;5035801;28;20108;-74
2023/07/10 12:59:42;;;;;;;8.23;1.58;;;;;;;;;;5035109;28;20143;-74
2023/07/10 13:02:19;;;;;;;6.57;1.25;;;;;;;;;;5034891;28;20405;-75
2023/07/10 13:04:55;;;;;;;5.50;1.58;;;;;;;;;;5034744;28;20508;-73